Maratha Promise — V7YE5 — position and weather

sailwx.info

Track history (hours):
 
Tides and Currents Weather Stations Pressure Air Temp Water Temp Dewpoint Dewpoint Depression Visibility Wind Speed Wind Dir Waves Ship Positions

Maratha Promise

Last reported at 2016-Sep-29 07:31 UTC. Time now 2016-Sep-29 08:21 UTC.
Position N 45°39' W 122°46'.

Length 178 m; draft 5.8 m.

Type: Cargo ship. MMSI: 538004641.

Date/timePositionNaut miles runAvg speedWind from/ knotsBaromVisibWave heightAir tempDewpointWater temp
2016-Sep-29 07:31N 45°39' W 122°46'0 0.0
2016-Sep-29 00:28N 45°39' W 122°46'0 0.1
2016-Sep-28 21:33N 45°39' W 122°46'2 1.2
2016-Sep-28 19:31N 45°41' W 122°46'0 0.0
2016-Sep-28 16:31N 45°41' W 122°46'0 0.0
2016-Sep-28 15:31N 45°41' W 122°46'0 0.0
2016-Sep-28 12:28N 45°41' W 122°46'0 0.0
2016-Sep-28 08:31N 45°41' W 122°46'0 0.0
2016-Sep-28 03:25N 45°41' W 122°46'0 0.0
2016-Sep-28 02:31N 45°41' W 122°46'0 0.0
2016-Sep-28 01:31N 45°41' W 122°46'0 0.1
2016-Sep-27 23:31N 45°41' W 122°46'20 5.2
2016-Sep-27 19:33N 46°01' W 122°52'41 8.1
2016-Sep-27 14:31N 46°12' W 123°49'0 0.0
2016-Sep-27 13:31N 46°12' W 123°49'0 0.0
2016-Sep-27 10:31N 46°12' W 123°49'0 0.0
2016-Sep-27 00:31N 46°12' W 123°49'0 0.0
2016-Sep-26 20:28N 46°12' W 123°48'0 0.2
2016-Sep-26 19:28N 46°12' W 123°48'0 0.0
2016-Sep-26 15:28N 46°12' W 123°48'0 0.1
2016-Sep-26 13:31N 46°12' W 123°49'0 0.0
2016-Sep-26 11:31N 46°12' W 123°49'0 0.0
2016-Sep-26 08:31N 46°12' W 123°49'0 0.0
2016-Sep-26 02:31N 46°12' W 123°48'0 0.0
2016-Sep-26 01:31N 46°12' W 123°48'0 0.2
2016-Sep-26 00:31N 46°12' W 123°49'0 0.0
2016-Sep-25 21:31N 46°12' W 123°49'0 0.1
2016-Sep-25 17:31N 46°12' W 123°48'0 0.0
2016-Sep-25 16:31N 46°12' W 123°48'0 0.0
2016-Sep-25 15:31N 46°12' W 123°48'0 0.0
2016-Sep-25 14:31N 46°12' W 123°48'0 0.1
2016-Sep-25 12:31N 46°12' W 123°49'0 0.0
2016-Sep-25 11:31N 46°12' W 123°49'0 0.0
2016-Sep-25 10:31N 46°12' W 123°49'0 0.0
2016-Sep-25 09:28N 46°12' W 123°49'0 0.0
2016-Sep-25 07:31N 46°12' W 123°49'0 0.1
2016-Sep-25 04:31N 46°12' W 123°48'0 0.0
2016-Sep-25 00:28N 46°12' W 123°48'0 0.1
2016-Sep-24 22:31N 46°12' W 123°49'0 0.0
2016-Sep-24 21:31N 46°12' W 123°49'10 5.2
2016-Sep-24 19:34N 46°16' W 124°02'1110.5
2016-Sep-24 18:34N 46°11' W 124°16'2 2.1
2016-Sep-24 17:33N 46°10' W 124°19'1 1.4
2016-Sep-24 16:34N 46°09' W 124°19'13 6.4
2016-Sep-24 14:33N 45°56' W 124°24'15 7.3
2016-Sep-24 12:34N 45°43' W 124°33'2211.0
2016-Sep-24 10:34N 45°24' W 124°48'1111.4
2016-Sep-24 09:33N 45°14' W 124°56'  
2016-Sep-21 23:30N 35°15' W 124°22'9 9.5
2016-Sep-21 22:33N 35°06' W 124°18'28 9.4
2016-Sep-21 19:33N 34°40' W 124°05'23 7.8
2016-Sep-21 16:33N 34°28' W 123°41'7010.0
2016-Sep-21 09:33N 34°28' W 122°16'1010.5
2016-Sep-21 08:34N 34°28' W 122°03'3311.0
2016-Sep-21 05:34N 34°28' W 121°23'2211.1
2016-Sep-21 03:33N 34°27' W 120°56'1110.8
2016-Sep-21 02:34N 34°24' W 120°44'9911.0
2016-Sep-20 17:34N 33°52' W 118°50'3110.5
2016-Sep-20 14:34N 33°40' W 118°15'6 5.6
2016-Sep-20 13:33N 33°46' W 118°15'1 0.2
2016-Sep-20 10:32N 33°46' W 118°15'0 0.0
2016-Sep-20 08:32N 33°46' W 118°15'0 0.0
2016-Sep-20 07:32N 33°46' W 118°15'0 0.0
2016-Sep-20 06:32N 33°46' W 118°15'0 0.0
2016-Sep-20 02:32N 33°46' W 118°15'0 0.0
2016-Sep-19 23:32N 33°46' W 118°15'0 0.0
2016-Sep-19 19:32N 33°46' W 118°15'0 0.0
2016-Sep-19 18:32N 33°46' W 118°15'0 0.0
2016-Sep-19 16:32N 33°46' W 118°15'0 0.0
2016-Sep-19 14:32N 33°46' W 118°15'0 0.0
2016-Sep-19 13:32N 33°46' W 118°15'0 0.0
2016-Sep-19 12:32N 33°46' W 118°15'0 0.0
2016-Sep-19 11:32N 33°46' W 118°15'0 0.0
2016-Sep-19 09:32N 33°46' W 118°15'0 0.0
2016-Sep-19 07:32N 33°46' W 118°15'  
Track history (hours):
 
Tides and Currents Weather Stations Pressure Air Temp Water Temp Dewpoint Dewpoint Depression Visibility Wind Speed Wind Dir Waves Ship Positions

Maratha Promise

Last reported at 2016-Sep-29 07:31 UTC. Time now 2016-Sep-29 08:21 UTC.
Position N 45°39' W 122°46'.

Length 178 m; draft 5.8 m.

Type: Cargo ship. MMSI: 538004641.

Date/timePositionNaut miles runAvg speedWind from/ knotsBaromVisibWave heightAir tempDewpointWater temp
2016-Sep-29 07:31N 45°39' W 122°46'0 0.0
2016-Sep-29 00:28N 45°39' W 122°46'0 0.1
2016-Sep-28 21:33N 45°39' W 122°46'2 1.2
2016-Sep-28 19:31N 45°41' W 122°46'0 0.0
2016-Sep-28 16:31N 45°41' W 122°46'0 0.0
2016-Sep-28 15:31N 45°41' W 122°46'0 0.0
2016-Sep-28 12:28N 45°41' W 122°46'0 0.0
2016-Sep-28 08:31N 45°41' W 122°46'0 0.0
2016-Sep-28 03:25N 45°41' W 122°46'0 0.0
2016-Sep-28 02:31N 45°41' W 122°46'0 0.0
2016-Sep-28 01:31N 45°41' W 122°46'0 0.1
2016-Sep-27 23:31N 45°41' W 122°46'20 5.2
2016-Sep-27 19:33N 46°01' W 122°52'41 8.1
2016-Sep-27 14:31N 46°12' W 123°49'0 0.0
2016-Sep-27 13:31N 46°12' W 123°49'0 0.0
2016-Sep-27 10:31N 46°12' W 123°49'0 0.0
2016-Sep-27 00:31N 46°12' W 123°49'0 0.0
2016-Sep-26 20:28N 46°12' W 123°48'0 0.2
2016-Sep-26 19:28N 46°12' W 123°48'0 0.0
2016-Sep-26 15:28N 46°12' W 123°48'0 0.1
2016-Sep-26 13:31N 46°12' W 123°49'0 0.0
2016-Sep-26 11:31N 46°12' W 123°49'0 0.0
2016-Sep-26 08:31N 46°12' W 123°49'0 0.0
2016-Sep-26 02:31N 46°12' W 123°48'0 0.0
2016-Sep-26 01:31N 46°12' W 123°48'0 0.2
2016-Sep-26 00:31N 46°12' W 123°49'0 0.0
2016-Sep-25 21:31N 46°12' W 123°49'0 0.1
2016-Sep-25 17:31N 46°12' W 123°48'0 0.0
2016-Sep-25 16:31N 46°12' W 123°48'0 0.0
2016-Sep-25 15:31N 46°12' W 123°48'0 0.0
2016-Sep-25 14:31N 46°12' W 123°48'0 0.1
2016-Sep-25 12:31N 46°12' W 123°49'0 0.0
2016-Sep-25 11:31N 46°12' W 123°49'0 0.0
2016-Sep-25 10:31N 46°12' W 123°49'0 0.0
2016-Sep-25 09:28N 46°12' W 123°49'0 0.0
2016-Sep-25 07:31N 46°12' W 123°49'0 0.1
2016-Sep-25 04:31N 46°12' W 123°48'0 0.0
2016-Sep-25 00:28N 46°12' W 123°48'0 0.1
2016-Sep-24 22:31N 46°12' W 123°49'0 0.0
2016-Sep-24 21:31N 46°12' W 123°49'10 5.2
2016-Sep-24 19:34N 46°16' W 124°02'1110.5
2016-Sep-24 18:34N 46°11' W 124°16'2 2.1
2016-Sep-24 17:33N 46°10' W 124°19'1 1.4
2016-Sep-24 16:34N 46°09' W 124°19'13 6.4
2016-Sep-24 14:33N 45°56' W 124°24'15 7.3
2016-Sep-24 12:34N 45°43' W 124°33'2211.0
2016-Sep-24 10:34N 45°24' W 124°48'1111.4
2016-Sep-24 09:33N 45°14' W 124°56'  
2016-Sep-21 23:30N 35°15' W 124°22'9 9.5
2016-Sep-21 22:33N 35°06' W 124°18'28 9.4
2016-Sep-21 19:33N 34°40' W 124°05'23 7.8
2016-Sep-21 16:33N 34°28' W 123°41'7010.0
2016-Sep-21 09:33N 34°28' W 122°16'1010.5
2016-Sep-21 08:34N 34°28' W 122°03'3311.0
2016-Sep-21 05:34N 34°28' W 121°23'2211.1
2016-Sep-21 03:33N 34°27' W 120°56'1110.8
2016-Sep-21 02:34N 34°24' W 120°44'9911.0
2016-Sep-20 17:34N 33°52' W 118°50'3110.5
2016-Sep-20 14:34N 33°40' W 118°15'6 5.6
2016-Sep-20 13:33N 33°46' W 118°15'1 0.2
2016-Sep-20 10:32N 33°46' W 118°15'0 0.0
2016-Sep-20 08:32N 33°46' W 118°15'0 0.0
2016-Sep-20 07:32N 33°46' W 118°15'0 0.0
2016-Sep-20 06:32N 33°46' W 118°15'0 0.0
2016-Sep-20 02:32N 33°46' W 118°15'0 0.0
2016-Sep-19 23:32N 33°46' W 118°15'0 0.0
2016-Sep-19 19:32N 33°46' W 118°15'0 0.0
2016-Sep-19 18:32N 33°46' W 118°15'0 0.0
2016-Sep-19 16:32N 33°46' W 118°15'0 0.0
2016-Sep-19 14:32N 33°46' W 118°15'0 0.0
2016-Sep-19 13:32N 33°46' W 118°15'0 0.0
2016-Sep-19 12:32N 33°46' W 118°15'0 0.0
2016-Sep-19 11:32N 33°46' W 118°15'0 0.0
2016-Sep-19 09:32N 33°46' W 118°15'0 0.0
2016-Sep-19 07:32N 33°46' W 118°15'  

Dump ship's entire track history